Time;durP1;ratioP1;P1;durP2;ratioP2;P2;SDS_P1;SDS_P2;PMS_P1;PMS_P2;Temp;Humidity;BMP_temperature;BMP_pressure;BME280_temperature;BME280_humidity;BME280_pressure;Samples;Min_cycle;Max_cycle;Signal;HPM_P1;HPM_P2
2023/01/13 00:02:09;;;;;;;1.80;1.00;;;;;;;11.37;51.12;94693.22;5002260;28;20381;-83
2023/01/13 00:04:34;;;;;;;1.73;1.10;;;;;;;11.42;50.61;94690.59;5018402;28;20025;-83
2023/01/13 00:07:00;;;;;;;2.30;1.30;;;;;;;11.38;51.27;94686.94;5036183;28;20026;-83
2023/01/13 00:09:25;;;;;;;2.05;1.00;;;;;;;11.45;50.71;94684.03;5002242;28;20022;-83
2023/01/13 00:11:50;;;;;;;3.50;1.10;;;;;;;11.51;50.28;94685.59;5019754;28;20030;-82
2023/01/13 00:14:17;;;;;;;3.67;1.08;;;;;;;11.53;51.00;94685.34;5021813;28;20025;-82
2023/01/13 00:16:42;;;;;;;2.30;1.30;;;;;;;11.50;51.23;94678.00;5021668;28;20033;-82
2023/01/13 00:19:08;;;;;;;2.35;0.88;;;;;;;11.45;51.27;94671.69;5021809;28;20026;-82
2023/01/13 00:21:33;;;;;;;1.77;0.80;;;;;;;11.52;51.56;94670.63;5021751;28;20083;-82
2023/01/13 00:24:05;;;;;;;2.25;1.00;;;;;;;11.46;52.46;94662.75;5021686;28;20440;-82
2023/01/13 00:26:34;;;;;;;3.13;1.10;;;;;;;11.07;52.10;94649.44;5021501;28;20443;-82
2023/01/13 00:28:59;;;;;;;2.80;1.30;;;;;;;11.30;51.11;94653.34;5022059;28;20343;-82
2023/01/13 00:31:27;;;;;;;2.15;1.30;;;;;;;11.40;50.97;94655.97;5039182;28;20025;-82
2023/01/13 00:33:55;;;;;;;2.90;1.40;;;;;;;11.46;50.96;94641.00;5021383;28;20320;-82
2023/01/13 00:36:20;;;;;;;3.20;1.35;;;;;;;10.96;52.23;94638.16;5005060;28;20037;-82
2023/01/13 00:38:46;;;;;;;2.85;1.38;;;;;;;11.20;51.13;94635.00;5021539;28;20343;-83
2023/01/13 00:41:17;;;;;;;4.65;1.50;;;;;;;11.44;50.34;94643.09;5037985;28;20036;-83
2023/01/13 00:43:43;;;;;;;3.55;1.52;;;;;;;11.34;50.98;94630.00;5005109;28;20063;-83
2023/01/13 00:46:10;;;;;;;4.80;1.30;;;;;;;11.55;50.25;94628.13;5021168;28;20025;-83
2023/01/13 00:48:36;;;;;;;2.45;1.15;;;;;;;11.37;49.63;94634.72;5021142;28;20025;-83
2023/01/13 00:51:05;;;;;;;1.65;1.10;;;;;;;11.59;49.68;94627.31;5021278;28;20494;-83
2023/01/13 00:53:36;;;;;;;1.52;0.88;;;;;;;11.62;50.36;94630.47;5020931;28;20037;-83
2023/01/13 00:56:13;;;;;;;1.50;0.98;;;;;;;11.56;49.65;94627.88;5020867;28;20347;-83
2023/01/13 00:58:39;;;;;;;1.60;0.98;;;;;;;11.51;50.03;94616.59;5005516;28;20041;-83
2023/01/13 01:01:06;;;;;;;2.40;1.17;;;;;;;11.39;49.97;94620.28;5020985;28;20021;-83
2023/01/13 01:03:32;;;;;;;4.07;1.30;;;;;;;11.40;49.15;94605.31;5020946;28;20057;-83
2023/01/13 01:06:07;;;;;;;1.98;0.80;;;;;;;11.71;49.37;94608.66;5004221;28;20084;-83
2023/01/13 01:08:33;;;;;;;2.97;1.20;;;;;;;11.55;50.15;94622.88;5023440;28;20029;-82
2023/01/13 01:11:06;;;;;;;2.65;1.42;;;;;;;11.57;48.39;94631.25;5024039;28;20114;-83
2023/01/13 01:13:32;;;;;;;;;;;;;;;11.86;48.09;94641.94;5058731;28;20024;-82
2023/01/13 01:15:58;;;;;;;1.58;1.10;;;;;;;11.74;48.44;94644.09;5023986;28;19919;-82
2023/01/13 01:18:24;;;;;;;4.15;1.23;;;;;;;11.78;49.09;94642.50;5040433;28;20031;-82
2023/01/13 01:20:49;;;;;;;2.05;1.08;;;;;;;11.56;49.20;94643.59;5023626;28;20079;-82
2023/01/13 01:23:14;;;;;;;1.45;0.80;;;;;;;11.59;48.99;94642.28;5039843;28;20390;-82
2023/01/13 01:25:40;;;;;;;1.48;0.77;;;;;;;11.50;48.39;94647.28;5020538;28;20029;-82
2023/01/13 01:28:05;;;;;;;1.85;1.00;;;;;;;11.71;47.82;94636.75;5033880;28;20349;-82
2023/01/13 01:30:31;;;;;;;3.25;0.80;;;;;;;11.89;47.22;94627.47;5011235;28;20025;-82
2023/01/13 01:32:56;;;;;;;1.08;0.60;;;;;;;11.84;47.97;94633.56;5039848;28;20029;-82
2023/01/13 01:35:23;;;;;;;1.95;0.82;;;;;;;12.00;47.83;94629.00;5040223;28;20453;-82
2023/01/13 01:37:49;;;;;;;1.88;1.00;;;;;;;11.90;48.73;94629.03;5039852;28;20342;-82
2023/01/13 01:40:15;;;;;;;1.40;0.70;;;;;;;11.84;49.15;94623.06;5040349;28;20021;-82
2023/01/13 01:45:26;;;;;;;1.98;1.00;;;;;;;11.86;47.51;94628.81;5057719;28;20036;-83
2023/01/13 01:47:58;;;;;;;1.50;0.70;;;;;;;11.97;46.75;94637.44;5039805;28;20116;-83
2023/01/13 01:50:24;;;;;;;1.65;0.80;;;;;;;11.66;46.82;94628.88;5023493;28;20032;-83
2023/01/13 01:53:02;;;;;;;1.75;0.90;;;;;;;11.80;48.41;94624.63;5039871;28;20412;-83
2023/01/13 01:55:33;;;;;;;2.85;0.70;;;;;;;11.91;47.70;94625.41;5039823;28;20032;-83
2023/01/13 01:58:02;;;;;;;1.55;0.85;;;;;;;11.78;49.04;94625.97;5039850;28;20033;-83
2023/01/13 02:00:27;;;;;;;3.47;1.02;;;;;;;11.48;49.71;94614.47;5057409;28;20150;-83
2023/01/13 02:02:54;;;;;;;1.67;0.75;;;;;;;11.52;49.23;94608.44;5039663;28;20032;-83
2023/01/13 02:05:19;;;;;;;2.17;0.95;;;;;;;11.56;48.62;94613.94;5039669;28;20464;-83
2023/01/13 02:07:47;;;;;;;1.92;0.90;;;;;;;11.57;48.67;94610.25;5057213;28;20024;-83
2023/01/13 02:10:15;;;;;;;2.47;0.80;;;;;;;11.56;48.61;94613.94;5023259;28;20029;-83
2023/01/13 02:12:42;;;;;;;1.63;0.70;;;;;;;11.62;48.35;94601.59;5039497;28;20039;-83
2023/01/13 02:15:10;;;;;;;4.35;0.90;;;;;;;11.69;47.76;94605.50;5023123;28;20462;-83
2023/01/13 02:18:11;;;;;;;1.15;0.75;;;;;;;11.75;47.30;94598.41;5039236;28;20029;-82
2023/01/13 02:20:59;;;;;;;4.28;1.00;;;;;;;11.77;47.38;94598.91;5039362;28;20024;-82
2023/01/13 02:26:18;;;;;;;4.53;0.90;;;;;;;11.80;46.92;94582.63;5056904;28;20381;-82
2023/01/13 02:31:59;;;;;;;2.92;0.82;;;;;;;11.93;46.13;94570.78;5056974;28;20043;-83
2023/01/13 02:34:35;;;;;;;2.22;0.95;;;;;;;12.01;46.05;94557.09;5038218;28;20450;-83
2023/01/13 02:37:13;;;;;;;1.88;0.85;;;;;;;12.05;46.38;94546.84;5038923;28;20028;-82
2023/01/13 02:39:53;;;;;;;1.88;0.82;;;;;;;11.90;47.38;94555.53;5039107;28;20400;-82
2023/01/13 02:45:50;;;;;;;1.50;0.70;;;;;;;11.45;47.45;94543.13;5036841;28;20039;-82
2023/01/13 02:48:15;;;;;;;2.00;0.82;;;;;;;11.50;47.14;94547.56;5022709;28;20078;-83
2023/01/13 02:50:47;;;;;;;0.70;0.68;;;;;;;11.62;46.46;94544.66;5038865;28;20060;-83
2023/01/13 02:53:21;;;;;;;1.20;0.85;;;;;;;11.73;46.23;94533.03;5038869;28;20423;-83
2023/01/13 02:55:49;;;;;;;1.42;0.70;;;;;;;11.70;46.49;94538.06;5022135;28;20512;-83
2023/01/13 02:58:17;;;;;;;0.63;0.60;;;;;;;11.55;48.27;94534.47;5038781;28;20040;-83
2023/01/13 03:00:44;;;;;;;2.17;0.60;;;;;;;11.33;47.35;94545.25;5038692;28;20028;-83
2023/01/13 03:03:09;;;;;;;3.42;0.73;;;;;;;11.39;46.26;94536.34;5038756;28;20032;-83
2023/01/13 03:05:35;;;;;;;4.38;1.10;;;;;;;11.56;46.30;94516.84;5038757;28;20028;-83
2023/01/13 03:08:22;;;;;;;1.05;0.70;;;;;;;11.81;45.67;94520.41;5022394;28;20068;-82
2023/01/13 03:11:04;;;;;;;2.75;0.70;;;;;;;11.72;46.34;94513.09;5038743;28;20029;-82
2023/01/13 03:13:48;;;;;;;1.50;0.80;;;;;;;11.54;47.25;94511.88;5038701;28;20116;-82
2023/01/13 03:16:16;;;;;;;;;;;;;;;11.79;46.01;94501.53;5056613;28;20521;-82
2023/01/13 03:19:14;;;;;;;1.30;0.60;;;;;;;11.68;45.67;94501.59;5056399;28;19916;-83
2023/01/13 03:21:39;;;;;;;1.88;0.75;;;;;;;11.28;47.88;94503.31;5023960;28;20052;-82
2023/01/13 03:24:28;;;;;;;0.77;0.60;;;;;;;11.42;47.91;94496.44;5038626;28;20033;-82
2023/01/13 03:27:19;;;;;;;1.15;0.60;;;;;;;11.30;48.08;94506.47;5038146;28;20099;-83
2023/01/13 03:29:53;;;;;;;0.98;0.60;;;;;;;11.28;47.75;94498.88;5038541;28;20028;-82
2023/01/13 03:32:27;;;;;;;;;;;;;;;11.61;47.04;94485.34;5038863;28;20035;-83
2023/01/13 03:35:02;;;;;;;1.58;0.70;;;;;;;11.57;46.24;94479.06;5038569;28;19963;-83
2023/01/13 03:37:32;;;;;;;1.02;0.60;;;;;;;11.39;46.47;94477.81;5022105;28;20136;-83
2023/01/13 03:40:12;;;;;;;1.13;0.50;;;;;;;11.58;45.89;94481.44;5038471;28;20342;-82
2023/01/13 03:42:39;;;;;;;2.15;0.70;;;;;;;11.35;46.59;94472.34;5022170;28;20459;-82
2023/01/13 03:45:13;;;;;;;1.95;0.77;;;;;;;11.46;46.34;94473.84;5038545;28;20033;-82
2023/01/13 03:47:47;;;;;;;0.82;0.52;;;;;;;11.72;45.54;94475.59;5025806;28;20032;-82
2023/01/13 03:50:20;;;;;;;1.48;0.57;;;;;;;11.70;45.51;94470.59;5042334;28;20029;-82
2023/01/13 03:52:53;;;;;;;1.27;0.63;;;;;;;11.75;45.83;94477.66;5042091;28;20025;-83
2023/01/13 03:55:27;;;;;;;1.98;0.95;;;;;;;11.70;46.12;94473.22;5042017;28;20024;-83
2023/01/13 03:57:53;;;;;;;1.33;0.80;;;;;;;11.30;46.36;94472.34;5025495;28;20029;-82
2023/01/13 04:00:21;;;;;;;2.00;0.80;;;;;;;11.71;45.33;94468.78;5041768;28;20044;-83
2023/01/13 04:02:53;;;;;;;1.42;0.70;;;;;;;11.67;45.07;94463.28;5025228;28;20488;-83
2023/01/13 04:05:19;;;;;;;1.48;0.77;;;;;;;11.05;47.22;94457.50;5038647;28;20093;-83
2023/01/13 04:07:52;;;;;;;2.42;0.63;;;;;;;11.63;46.00;94459.63;5021690;28;20029;-82
2023/01/13 04:10:30;;;;;;;0.90;0.80;;;;;;;11.86;45.81;94466.06;5022172;28;20026;-83
2023/01/13 04:13:05;;;;;;;1.08;0.75;;;;;;;11.59;46.10;94466.44;5021976;28;20447;-83
2023/01/13 04:15:38;;;;;;;3.05;1.02;;;;;;;11.91;45.57;94465.25;5021981;28;20075;-83
2023/01/13 04:18:10;;;;;;;1.73;0.93;;;;;;;11.78;46.02;94474.50;5021655;28;20390;-83
2023/01/13 04:20:36;;;;;;;1.23;0.68;;;;;;;11.76;46.29;94463.47;5038367;28;20435;-83
2023/01/13 04:23:02;;;;;;;2.25;0.80;;;;;;;11.72;46.64;94470.34;5021894;28;20040;-83
2023/01/13 04:25:27;;;;;;;2.22;0.75;;;;;;;11.75;46.55;94475.03;5021492;28;20033;-83
2023/01/13 04:27:52;;;;;;;1.65;0.68;;;;;;;11.28;48.39;94477.91;5021756;28;20060;-83
2023/01/13 04:30:18;;;;;;;2.38;0.70;;;;;;;11.64;45.51;94482.19;5021908;28;20104;-83
2023/01/13 04:32:43;;;;;;;2.03;0.50;;;;;;;11.66;47.33;94485.31;5005312;28;20033;-83
2023/01/13 04:35:09;;;;;;;1.38;0.70;;;;;;;11.56;47.73;94485.38;5021691;28;20351;-83
2023/01/13 04:37:35;;;;;;;3.00;0.60;;;;;;;11.16;47.87;94483.41;5039199;28;20423;-83
2023/01/13 04:40:00;;;;;;;1.00;0.57;;;;;;;11.22;48.98;94481.56;5021543;28;20044;-83
2023/01/13 04:42:25;;;;;;;2.90;0.73;;;;;;;11.04;47.93;94493.41;5039294;28;20104;-83
2023/01/13 04:44:51;;;;;;;1.55;0.75;;;;;;;11.28;47.52;94495.44;5021306;28;20033;-83
2023/01/13 04:47:16;;;;;;;1.42;0.80;;;;;;;11.35;47.13;94498.59;5039006;28;20382;-83
2023/01/13 04:49:42;;;;;;;1.70;0.70;;;;;;;11.32;46.40;94504.34;5038847;28;20036;-83
2023/01/13 04:52:07;;;;;;;1.67;0.65;;;;;;;11.44;45.97;94496.19;5021200;28;20029;-83
2023/01/13 04:54:32;;;;;;;4.18;0.60;;;;;;;11.52;46.22;94492.22;5005061;28;20033;-83
2023/01/13 04:56:58;;;;;;;1.17;0.80;;;;;;;11.39;47.14;94494.38;5020048;28;20030;-83
2023/01/13 04:59:23;;;;;;;2.55;0.90;;;;;;;11.37;46.93;94488.59;5020573;28;20389;-83
2023/01/13 05:01:49;;;;;;;3.38;1.38;;;;;;;11.35;46.66;94497.78;5040747;28;20029;-83
2023/01/13 05:04:15;;;;;;;5.80;1.10;;;;;;;11.51;47.07;94493.28;5040909;28;20037;-83
2023/01/13 05:06:41;;;;;;;2.28;1.10;;;;;;;11.63;47.31;94504.25;5040770;28;20029;-83
2023/01/13 05:09:07;;;;;;;1.98;1.20;;;;;;;11.40;48.57;94503.00;5041243;28;20056;-83
2023/01/13 05:17:00;;;;;;;2.53;1.33;;;;;;;10.99;50.64;94530.16;5058138;28;20044;-83
2023/01/13 05:19:33;;;;;;;4.95;1.55;;;;;;;11.26;50.57;94527.22;5024206;28;20033;-83
2023/01/13 05:27:28;;;;;;;3.45;1.92;;;;;;;11.17;51.67;94544.53;5042619;28;20143;-83
2023/01/13 05:29:54;;;;;;;1.90;1.17;;;;;;;11.34;51.18;94539.00;5038252;28;20056;-83
2023/01/13 05:32:32;;;;;;;6.60;2.38;;;;;;;11.44;51.33;94541.56;5040242;28;20033;-83
2023/01/13 05:34:58;;;;;;;4.03;1.50;;;;;;;11.37;52.02;94548.94;5023390;28;20068;-82
2023/01/13 05:37:24;;;;;;;5.78;1.70;;;;;;;11.28;52.31;94540.03;5040024;28;20032;-82
2023/01/13 05:45:18;;;;;;;3.85;1.90;;;;;;;11.05;53.08;94552.69;5042703;28;20174;-82
2023/01/13 05:47:43;;;;;;;3.83;1.80;;;;;;;10.63;54.25;94551.94;5039895;28;20068;-82
2023/01/13 05:50:09;;;;;;;4.68;1.98;;;;;;;11.15;53.09;94552.66;5039828;28;20029;-82
2023/01/13 05:52:35;;;;;;;3.42;1.60;;;;;;;11.15;53.07;94560.53;5039721;28;20025;-83
2023/01/13 05:55:00;;;;;;;3.20;1.60;;;;;;;11.11;53.04;94553.44;5039642;28;20033;-82
2023/01/13 05:57:26;;;;;;;8.35;1.90;;;;;;;11.11;53.33;94550.81;5039546;28;20122;-82
2023/01/13 05:59:51;;;;;;;5.78;1.77;;;;;;;10.99;54.82;94558.97;5039755;28;20381;-84
2023/01/13 06:02:17;;;;;;;3.70;1.33;;;;;;;10.97;54.49;94559.25;5023292;28;20319;-83
2023/01/13 06:04:42;;;;;;;4.70;1.60;;;;;;;10.68;55.78;94562.41;5039617;28;20033;-83
2023/01/13 06:07:07;;;;;;;5.45;1.70;;;;;;;9.85;59.09;94553.63;5039476;28;20423;-83
2023/01/13 06:09:33;;;;;;;3.97;1.90;;;;;;;10.47;56.80;94559.00;5019708;28;20029;-84
2023/01/13 06:11:58;;;;;;;4.30;1.65;;;;;;;10.56;56.36;94560.06;5019657;28;20423;-83
2023/01/13 06:14:24;;;;;;;3.95;1.40;;;;;;;10.41;56.88;94558.22;5039289;28;20426;-84
2023/01/13 06:16:49;;;;;;;5.05;1.75;;;;;;;10.39;56.36;94562.13;5058973;28;20465;-83
2023/01/13 06:19:15;;;;;;;3.92;1.55;;;;;;;10.36;56.46;94571.28;5042825;28;20396;-83
2023/01/13 06:21:43;;;;;;;2.90;1.40;;;;;;;10.45;56.36;94571.56;5059152;28;20114;-83
2023/01/13 06:24:09;;;;;;;3.35;1.40;;;;;;;10.15;56.57;94565.22;5043097;28;20029;-83
2023/01/13 06:26:39;;;;;;;3.22;1.48;;;;;;;10.11;56.88;94561.56;5059049;28;20093;-83
2023/01/13 06:29:05;;;;;;;5.75;1.15;;;;;;;9.73;57.66;94567.72;5059082;28;20028;-83
2023/01/13 06:31:32;;;;;;;2.00;1.20;;;;;;;10.30;56.76;94567.84;5059083;28;20106;-83
2023/01/13 06:34:11;;;;;;;2.10;1.30;;;;;;;10.40;57.04;94574.97;5042390;28;20040;-83
2023/01/13 06:36:40;;;;;;;3.08;1.40;;;;;;;10.33;57.33;94577.84;5059256;28;20438;-82
2023/01/13 06:39:08;;;;;;;3.75;1.58;;;;;;;10.21;57.70;94568.63;5059971;28;20434;-82
2023/01/13 06:44:18;;;;;;;3.75;1.60;;;;;;;10.33;57.59;94583.06;5076793;28;20439;-82
2023/01/13 06:46:44;;;;;;;4.07;1.90;;;;;;;10.28;58.99;94585.66;5055207;28;20960;-82
2023/01/13 06:49:09;;;;;;;4.00;1.80;;;;;;;10.30;58.95;94580.94;5038789;28;20028;-82
2023/01/13 06:51:35;;;;;;;12.02;6.38;;;;;;;10.23;58.54;94585.66;5038745;28;20457;-82
2023/01/13 06:54:00;;;;;;;6.18;2.88;;;;;;;10.22;57.80;94589.34;5038680;28;20353;-82
2023/01/13 06:56:26;;;;;;;4.78;2.15;;;;;;;10.18;58.17;94590.88;5038426;28;20036;-82
2023/01/13 06:58:51;;;;;;;5.82;2.08;;;;;;;10.32;57.46;94594.56;5038761;28;20028;-82
2023/01/13 07:01:17;;;;;;;5.25;1.80;;;;;;;9.43;61.12;94584.88;5038698;28;20444;-82
2023/01/13 07:03:42;;;;;;;2.72;1.60;;;;;;;10.16;58.65;94591.16;5056460;28;20369;-82
2023/01/13 07:06:08;;;;;;;3.25;1.70;;;;;;;10.17;57.73;94582.25;5038563;28;20028;-82
2023/01/13 07:08:33;;;;;;;11.05;1.70;;;;;;;10.12;57.83;94589.31;5038670;28;20457;-82
2023/01/13 07:11:01;;;;;;;3.17;1.42;;;;;;;10.27;57.57;94584.09;5056292;28;20120;-82
2023/01/13 07:16:10;;;;;;;2.30;1.45;;;;;;;10.49;56.89;94582.31;5041119;28;20048;-82
2023/01/13 07:18:36;;;;;;;2.97;1.60;;;;;;;10.50;57.39;94587.31;5056244;28;20029;-82
2023/01/13 07:21:07;;;;;;;3.53;1.75;;;;;;;10.08;59.56;94575.94;5040454;28;20087;-82
2023/01/13 07:23:35;;;;;;;4.05;1.85;;;;;;;10.56;59.01;94588.88;5042563;28;20074;-82
2023/01/13 07:26:00;;;;;;;2.58;1.63;;;;;;;10.43;58.00;94581.53;5042389;28;20029;-82
2023/01/13 07:28:27;;;;;;;7.43;3.42;;;;;;;10.10;58.89;94575.69;5026159;28;20090;-82
2023/01/13 07:30:52;;;;;;;4.78;2.08;;;;;;;10.51;57.61;94583.63;5042371;28;20032;-82
2023/01/13 07:33:18;;;;;;;4.72;1.90;;;;;;;10.17;59.36;94582.25;5025723;28;20029;-82
2023/01/13 07:35:44;;;;;;;4.32;1.80;;;;;;;10.62;59.30;94586.28;5042387;28;20036;-82
2023/01/13 07:38:10;;;;;;;2.90;1.65;;;;;;;10.74;58.81;94584.97;5042153;28;20028;-82
2023/01/13 07:40:35;;;;;;;3.28;1.48;;;;;;;10.83;58.28;94590.44;5025526;28;20350;-82
2023/01/13 07:45:45;;;;;;;6.65;2.55;;;;;;;10.82;58.28;94581.03;5044795;28;20081;-82
2023/01/13 07:48:11;;;;;;;8.45;2.10;;;;;;;10.82;59.62;94578.41;5025766;28;20423;-82
2023/01/13 07:50:36;;;;;;;7.53;1.92;;;;;;;10.95;59.16;94571.81;5042038;28;20039;-82
2023/01/13 07:53:02;;;;;;;5.80;1.60;;;;;;;10.63;59.00;94577.38;5025759;28;20033;-82
2023/01/13 07:55:27;;;;;;;4.93;2.13;;;;;;;10.55;58.21;94584.69;5042190;28;20040;-82
2023/01/13 07:57:53;;;;;;;4.13;2.03;;;;;;;10.92;57.82;94589.94;5059518;28;20040;-82
2023/01/13 08:00:19;;;;;;;5.40;2.40;;;;;;;11.24;57.67;94596.72;5059656;28;20040;-82
2023/01/13 08:02:44;;;;;;;5.15;2.40;;;;;;;11.34;56.65;94590.66;5041820;28;20043;-82
2023/01/13 08:05:10;;;;;;;6.72;2.50;;;;;;;10.91;56.84;94588.38;5041666;28;20040;-81
2023/01/13 08:07:35;;;;;;;4.80;1.80;;;;;;;11.40;56.14;94597.44;5041565;28;20392;-81
2023/01/13 08:10:02;;;;;;;3.83;1.75;;;;;;;11.57;55.77;94594.53;5041677;28;20055;-81
2023/01/13 08:15:11;;;;;;;6.80;2.03;;;;;;;11.34;55.67;94591.44;5043385;28;20032;-81
2023/01/13 08:17:37;;;;;;;6.00;2.75;;;;;;;11.38;55.84;94600.34;5025129;28;20033;-81
2023/01/13 08:20:03;;;;;;;5.93;2.63;;;;;;;11.43;55.70;94616.06;5025283;28;20029;-81
2023/01/13 08:22:31;;;;;;;8.55;2.10;;;;;;;11.53;57.58;94599.50;5041519;28;20028;-81
2023/01/13 08:24:58;;;;;;;7.03;2.00;;;;;;;11.74;56.92;94607.34;5025561;28;20025;-81
2023/01/13 08:27:23;;;;;;;8.07;2.20;;;;;;;11.77;56.80;94613.91;5041728;28;20020;-81
2023/01/13 08:29:48;;;;;;;6.60;3.55;;;;;;;12.19;56.39;94594.28;5041701;28;20029;-81
2023/01/13 08:32:14;;;;;;;8.27;3.47;;;;;;;12.02;57.17;94598.03;5040142;28;20418;-81
2023/01/13 08:34:39;;;;;;;5.10;1.83;;;;;;;12.16;56.18;94600.88;5024950;28;20060;-81
2023/01/13 08:37:05;;;;;;;7.40;2.42;;;;;;;12.48;55.94;94603.31;5041147;28;20098;-81
2023/01/13 08:39:30;;;;;;;5.40;2.30;;;;;;;12.66;55.47;94602.66;5059046;28;20032;-81
2023/01/13 08:41:57;;;;;;;5.07;2.53;;;;;;;12.77;55.94;94600.75;5025160;28;20029;-81
2023/01/13 08:44:27;;;;;;;4.50;2.13;;;;;;;12.80;57.48;94613.34;5041318;28;20432;-81
2023/01/13 08:46:52;;;;;;;5.97;2.15;;;;;;;12.93;57.21;94590.88;5040919;28;20323;-81
2023/01/13 08:49:18;;;;;;;7.43;2.50;;;;;;;12.85;56.52;94589.63;5041311;28;20032;-81
2023/01/13 08:51:43;;;;;;;5.40;2.58;;;;;;;12.83;57.52;94591.75;5040036;28;20029;-80
2023/01/13 08:54:09;;;;;;;8.02;3.00;;;;;;;12.53;58.13;94601.44;5041281;28;20505;-81
2023/01/13 08:56:35;;;;;;;6.43;2.60;;;;;;;11.96;58.47;94604.34;5040722;28;20057;-80
2023/01/13 08:59:00;;;;;;;6.88;2.65;;;;;;;12.23;56.60;94597.94;5040862;28;20032;-80
2023/01/13 09:01:26;;;;;;;6.43;2.83;;;;;;;12.55;56.82;94607.22;5040809;28;20036;-80
2023/01/13 09:03:52;;;;;;;5.30;2.50;;;;;;;12.86;56.32;94603.59;5024468;28;20033;-80
2023/01/13 09:06:18;;;;;;;10.23;2.60;;;;;;;12.76;56.77;94607.06;5023964;28;20091;-81
2023/01/13 09:08:44;;;;;;;5.93;2.15;;;;;;;12.83;57.28;94618.06;5058442;28;20029;-80
2023/01/13 09:14:03;;;;;;;5.60;2.63;;;;;;;12.47;57.83;94622.78;5043324;28;20040;-81
2023/01/13 09:16:29;;;;;;;9.30;2.42;;;;;;;12.61;60.15;94620.31;5040363;28;20033;-80
2023/01/13 09:18:54;;;;;;;12.88;4.15;;;;;;;12.90;58.58;94614.31;5040570;28;20108;-80
2023/01/13 09:21:21;;;;;;;17.98;4.68;;;;;;;13.39;60.01;94600.19;5040441;28;20060;-80
2023/01/13 09:23:47;;;;;;;13.05;3.90;;;;;;;13.94;56.89;94601.75;5024130;28;20033;-80
2023/01/13 09:26:15;;;;;;;9.57;3.50;;;;;;;14.27;55.19;94599.19;5058016;28;20033;-81
2023/01/13 09:28:40;;;;;;;11.07;4.10;;;;;;;13.95;55.01;94592.78;5023604;28;20056;-81
2023/01/13 09:31:06;;;;;;;10.32;3.40;;;;;;;14.14;55.49;94599.91;5040152;28;20037;-81
2023/01/13 09:36:15;;;;;;;276.98;133.80;;;;;;;14.67;53.60;94590.22;5057746;28;20127;-81
2023/01/13 09:38:41;;;;;;;118.82;59.10;;;;;;;14.79;53.12;94595.06;5040153;28;20457;-81
2023/01/13 09:43:52;;;;;;;268.60;103.93;;;;;;;14.73;52.83;94590.94;5040606;28;20327;-81
2023/01/13 09:43:59;;;;;;;169.65;53.10;;;;;;;14.14;54.07;94594.63;5042476;28;20033;-81
2023/01/13 09:46:45;;;;;;;128.00;41.15;;;;;;;14.54;53.39;94586.44;5023505;28;20025;-81
2023/01/13 09:49:23;;;;;;;184.85;59.05;;;;;;;15.11;52.63;94585.56;5040609;28;20028;-81
2023/01/13 09:52:20;;;;;;;90.25;36.72;;;;;;;14.76;53.01;94599.03;5039818;28;20078;-81
2023/01/13 09:54:59;;;;;;;125.68;51.50;;;;;;;14.94;52.88;94604.59;5042444;28;20052;-81
2023/01/13 09:57:26;;;;;;;10.48;5.20;;;;;;;14.21;53.83;94597.72;5039579;28;20082;-81
2023/01/13 09:59:52;;;;;;;224.05;107.22;;;;;;;14.63;53.39;94594.47;5039736;28;20032;-81
2023/01/13 10:02:38;;;;;;;36.95;18.75;;;;;;;15.50;50.76;94583.59;5039668;28;20029;-81
2023/01/13 10:05:17;;;;;;;25.42;11.82;;;;;;;15.65;49.93;94570.09;5039880;28;20068;-81
2023/01/13 10:07:54;;;;;;;61.97;30.73;;;;;;;15.17;52.47;94576.50;5039704;28;20025;-81
2023/01/13 10:10:37;;;;;;;15.55;7.63;;;;;;;15.69;50.85;94563.13;5022980;28;20366;-81
2023/01/13 10:13:14;;;;;;;7.65;4.28;;;;;;;15.57;51.75;94572.63;5023282;28;20032;-81
2023/01/13 10:16:04;;;;;;;8.00;2.60;;;;;;;15.66;50.88;94563.72;5039485;28;20044;-81
2023/01/13 10:18:51;;;;;;;10.20;2.75;;;;;;;15.95;50.57;94565.28;5056454;28;20051;-81
2023/01/13 10:21:19;;;;;;;9.10;3.53;;;;;;;15.01;53.94;94554.88;5057166;28;20025;-81
2023/01/13 10:23:47;;;;;;;7.63;2.45;;;;;;;14.82;51.28;94554.91;5039183;28;20397;-81
2023/01/13 10:26:23;;;;;;;12.95;5.40;;;;;;;15.58;51.11;94545.91;5056950;28;20112;-81
2023/01/13 10:28:54;;;;;;;9.82;3.35;;;;;;;15.32;51.59;94546.41;5057006;28;20021;-81
2023/01/13 10:31:20;;;;;;;9.02;2.70;;;;;;;15.79;52.03;94540.25;5023214;28;20025;-81
2023/01/13 10:33:46;;;;;;;35.88;18.80;;;;;;;16.18;50.70;94528.31;5056845;28;20028;-81
2023/01/13 10:36:20;;;;;;;16.75;8.82;;;;;;;16.72;49.80;94537.44;5038893;28;20064;-81
2023/01/13 10:38:47;;;;;;;19.30;7.10;;;;;;;16.78;50.28;94533.56;5023170;28;20386;-81
2023/01/13 10:41:12;;;;;;;12.15;4.75;;;;;;;16.98;49.59;94534.94;5022791;28;20029;-81
2023/01/13 10:43:38;;;;;;;8.50;3.20;;;;;;;16.27;51.46;94535.56;5039190;28;20438;-81
2023/01/13 10:46:11;;;;;;;13.98;7.00;;;;;;;17.04;49.24;94532.97;5022628;28;20070;-81
2023/01/13 10:48:42;;;;;;;11.98;2.10;;;;;;;16.23;48.38;94519.50;5022714;28;20033;-81
2023/01/13 10:51:26;;;;;;;8.45;3.90;;;;;;;16.95;49.03;94524.97;5038909;28;20025;-81
2023/01/13 10:54:01;;;;;;;15.88;5.22;;;;;;;16.48;49.66;94514.72;5022693;28;20388;-81
2023/01/13 10:56:31;;;;;;;18.63;9.10;;;;;;;16.54;50.43;94524.88;5038173;28;20074;-81
2023/01/13 10:59:15;;;;;;;9.85;5.50;;;;;;;15.73;51.97;94521.06;5022258;28;20029;-81
2023/01/13 11:01:50;;;;;;;11.32;5.72;;;;;;;16.36;49.83;94517.91;5056568;28;20078;-81
2023/01/13 11:04:35;;;;;;;27.50;14.65;;;;;;;14.98;52.83;94523.78;5038837;28;20056;-81
2023/01/13 11:07:16;;;;;;;13.88;6.50;;;;;;;15.16;51.84;94522.16;5038506;28;20032;-81
2023/01/13 11:09:41;;;;;;;8.98;3.72;;;;;;;15.01;53.49;94517.16;5056514;28;20028;-81
2023/01/13 11:12:31;;;;;;;33.13;16.50;;;;;;;15.63;51.57;94519.41;5038723;28;20025;-81
2023/01/13 11:15:02;;;;;;;10.82;6.25;;;;;;;16.50;50.53;94515.19;5038481;28;20430;-81
2023/01/13 11:17:33;;;;;;;7.68;2.28;;;;;;;16.22;49.63;94517.94;5038510;28;20067;-81
2023/01/13 11:20:33;;;;;;;3.33;1.75;;;;;;;16.74;48.81;94522.81;5033065;28;20144;-81
2023/01/13 11:23:03;;;;;;;3.90;1.70;;;;;;;16.18;50.84;94506.41;5018965;28;20032;-81
2023/01/13 11:25:43;;;;;;;11.90;1.65;;;;;;;15.99;50.21;94502.03;5037151;28;20389;-81
2023/01/13 11:28:39;;;;;;;7.03;1.80;;;;;;;16.27;50.52;94496.66;5039199;28;20025;-81
2023/01/13 11:31:18;;;;;;;6.57;1.63;;;;;;;16.51;51.51;94501.69;5047328;28;20029;-81
2023/01/13 11:33:52;;;;;;;6.13;2.40;;;;;;;16.66;48.90;94512.97;5056067;28;20033;-81
2023/01/13 11:36:21;;;;;;;6.95;1.90;;;;;;;16.27;49.42;94495.91;5038191;28;20457;-81
2023/01/13 11:38:53;;;;;;;4.43;1.77;;;;;;;16.80;50.26;94476.63;5038794;28;20071;-81
2023/01/13 11:41:37;;;;;;;10.65;2.40;;;;;;;17.09;48.67;94475.41;5021983;28;20020;-81
2023/01/13 11:44:24;;;;;;;4.38;1.73;;;;;;;17.17;48.09;94465.91;5056007;28;20461;-81
2023/01/13 11:46:51;;;;;;;6.43;2.03;;;;;;;16.78;48.91;94460.25;5038217;28;20032;-81
2023/01/13 11:49:22;;;;;;;8.85;2.13;;;;;;;17.17;48.20;94465.13;5038188;28;20029;-81
2023/01/13 11:52:10;;;;;;;6.90;2.50;;;;;;;16.92;47.55;94470.78;5022109;28;20174;-81
2023/01/13 11:54:51;;;;;;;5.38;2.30;;;;;;;16.64;48.04;94465.66;5022047;28;20175;-81
2023/01/13 11:57:27;;;;;;;17.70;8.38;;;;;;;16.42;50.48;94461.16;5018432;28;20078;-81
2023/01/13 12:00:16;;;;;;;6.28;2.15;;;;;;;16.05;50.11;94463.88;5036054;28;20029;-81
2023/01/13 12:02:46;;;;;;;8.52;2.50;;;;;;;15.63;50.30;94466.56;5020638;28;20033;-81
2023/01/13 12:05:18;;;;;;;7.43;2.10;;;;;;;15.27;51.35;94473.38;5001908;28;20029;-81
2023/01/13 12:08:08;;;;;;;4.93;2.22;;;;;;;14.60;53.16;94457.94;5038621;28;20032;-81
2023/01/13 12:10:56;;;;;;;9.88;2.72;;;;;;;14.68;54.21;94446.75;5053528;28;20380;-81
2023/01/13 12:13:30;;;;;;;3.95;2.08;;;;;;;13.91;54.43;94451.38;5041696;28;20028;-81
2023/01/13 12:16:24;;;;;;;5.18;2.00;;;;;;;14.20;53.97;94453.06;5041790;28;20025;-81
2023/01/13 12:18:50;;;;;;;;;;;;;;;15.20;52.86;94449.25;5059843;28;20441;-81
2023/01/13 12:21:21;;;;;;;3.20;1.77;;;;;;;15.52;52.40;94436.22;5041841;28;20003;-81
2023/01/13 12:24:09;;;;;;;8.10;2.33;;;;;;;14.49;53.77;94449.44;5025341;28;20337;-81
2023/01/13 12:26:39;;;;;;;5.53;1.98;;;;;;;14.36;54.40;94441.19;5041651;28;20024;-81
2023/01/13 12:29:17;;;;;;;10.43;3.13;;;;;;;14.72;53.34;94429.28;5041564;28;20032;-81
2023/01/13 12:31:45;;;;;;;8.82;2.28;;;;;;;14.07;55.58;94422.97;5025046;28;20039;-82